New Franklin, Ohio
Current Conditions -  °F | °C
As of 1:51 AM on Sunday 26 Oct 2014 (Local Time) from KCAK Reporting Station
Clear Clear  
Wind Chill: 50°   Ceiling: Unl
Heat Index: 50°   Visibility: 10mi
Dew Point: 31°   Wind: 8mph
Humidity: 48%   Direction: 290°WNW
Pressure: 29.82"   Gusts: NA
Location:  40.7427°N, 81.0929°W
Report Text: KCAK 260551Z 29007KT 10SM CLR 10/M01 A2982 RMK AO2 SLP094 T01001006 10178 20100 50002
Loading
Personal Weather Stations






























Interactive Weather Map
Tropical Storm Tracking
New forecast layout! Learn more

10-Day Weather Forecast

Advertisements
Track Severe Weather on mobile